createdAt,value
2019-03-28T00:02:25.536Z,50.50
2019-03-28T00:04:56.643Z,46.08
2019-03-28T00:07:27.593Z,56.37
2019-03-28T00:09:58.739Z,47.65
2019-03-28T00:12:29.830Z,55.35
2019-03-28T00:15:00.918Z,43.68
2019-03-28T00:17:32.009Z,36.30
2019-03-28T00:20:03.844Z,36.23
2019-03-28T00:22:36.464Z,35.92
2019-03-28T00:25:15.793Z,39.95
2019-03-28T00:27:46.757Z,37.23
2019-03-28T00:30:19.188Z,34.60
2019-03-28T00:32:50.394Z,35.43
2019-03-28T00:35:21.487Z,34.40
2019-03-28T00:37:52.608Z,32.75
2019-03-28T00:40:23.552Z,34.05
2019-03-28T00:42:54.613Z,36.35
2019-03-28T00:45:25.770Z,34.95
2019-03-28T00:47:56.880Z,37.38
2019-03-28T00:50:27.951Z,35.65
2019-03-28T00:52:58.992Z,34.88
2019-03-28T00:55:29.997Z,37.40
2019-03-28T00:58:00.964Z,50.23
2019-03-28T01:00:32.035Z,33.38
2019-03-28T01:03:03.262Z,45.78
2019-03-28T01:05:34.455Z,43.10
2019-03-28T01:08:05.525Z,60.63
2019-03-28T01:10:36.518Z,46.92
2019-03-28T01:13:07.635Z,39.53
2019-03-28T01:15:38.627Z,42.85
2019-03-28T01:18:09.719Z,31.82
2019-03-28T01:20:40.911Z,34.30
2019-03-28T01:23:11.989Z,36.60
2019-03-28T01:25:42.970Z,31.40
2019-03-28T01:28:13.982Z,30.12
2019-03-28T01:30:44.962Z,30.45
2019-03-28T01:33:15.919Z,28.17
2019-03-28T01:35:46.918Z,29.25
2019-03-28T01:38:17.913Z,31.37
2019-03-28T01:40:50.012Z,28.23
2019-03-28T01:43:21.066Z,28.55
2019-03-28T01:45:52.205Z,27.35
2019-03-28T01:48:23.250Z,28.32
2019-03-28T01:50:54.314Z,26.87
2019-03-28T01:53:25.499Z,27.60
2019-03-28T01:55:56.558Z,24.95
2019-03-28T01:58:27.581Z,26.23
2019-03-28T02:00:58.601Z,26.50
2019-03-28T02:03:29.800Z,26.12
2019-03-28T02:06:00.865Z,26.40
2019-03-28T02:08:31.828Z,25.92
2019-03-28T02:11:03.179Z,26.27
2019-03-28T02:13:34.273Z,26.10
2019-03-28T02:16:05.329Z,25.20
2019-03-28T02:18:36.449Z,23.02
2019-03-28T02:21:09.583Z,22.90
2019-03-28T02:23:40.161Z,24.97
2019-03-28T02:26:11.339Z,21.05
2019-03-28T02:28:42.542Z,27.27
2019-03-28T02:31:13.512Z,25.30
2019-03-28T02:33:44.564Z,26.05
2019-03-28T02:36:15.605Z,24.72
2019-03-28T02:38:46.719Z,26.20
2019-03-28T02:41:17.688Z,35.00
2019-03-28T02:43:48.670Z,25.27
2019-03-28T02:46:19.674Z,26.68
2019-03-28T02:48:50.708Z,21.87
2019-03-28T02:51:21.861Z,25.27
2019-03-28T02:53:52.997Z,29.30
2019-03-28T02:56:24.179Z,23.60
2019-03-28T02:58:55.272Z,21.33
2019-03-28T03:01:30.096Z,23.90
2019-03-28T03:03:59.100Z,19.92
2019-03-28T03:06:30.264Z,23.15
2019-03-28T03:09:01.322Z,22.02
2019-03-28T03:11:33.281Z,20.65
2019-03-28T03:14:04.352Z,19.25
2019-03-28T03:16:35.487Z,21.25
2019-03-28T03:19:06.512Z,21.02
2019-03-28T03:21:37.566Z,23.22
2019-03-28T03:24:08.668Z,24.37
2019-03-28T03:26:39.682Z,18.75
2019-03-28T03:29:10.724Z,21.75
2019-03-28T03:31:41.837Z,20.45
2019-03-28T03:34:12.783Z,22.70
2019-03-28T03:36:44.981Z,20.72
2019-03-28T03:39:16.106Z,19.82
2019-03-28T03:41:47.227Z,22.73
2019-03-28T03:44:18.322Z,25.10
2019-03-28T03:46:49.406Z,21.05
2019-03-28T03:49:20.501Z,24.92
2019-03-28T03:51:51.592Z,20.08
2019-03-28T03:54:22.569Z,19.90
2019-03-28T03:56:53.684Z,20.45
2019-03-28T03:59:24.781Z,20.80
2019-03-28T04:01:55.888Z,17.15
2019-03-28T04:04:27.268Z,19.70
2019-03-28T04:06:58.417Z,16.45
2019-03-28T04:09:29.438Z,15.53
2019-03-28T04:12:00.382Z,16.07
2019-03-28T04:14:31.423Z,15.43
2019-03-28T04:17:02.435Z,14.03
2019-03-28T04:19:33.421Z,25.25
2019-03-28T04:22:04.546Z,23.45
2019-03-28T04:24:35.756Z,28.50
2019-03-28T04:27:06.836Z,21.62
2019-03-28T04:29:37.843Z,15.05
2019-03-28T04:32:08.887Z,14.65
2019-03-28T04:34:39.907Z,7.58
2019-03-28T04:37:10.803Z,11.70
2019-03-28T04:39:42.497Z,12.20
2019-03-28T04:42:13.592Z,11.65
2019-03-28T04:44:45.161Z,11.48
2019-03-28T04:47:16.101Z,9.60
2019-03-28T04:49:47.082Z,11.10
2019-03-28T04:52:17.946Z,19.30
2019-03-28T04:54:49.125Z,7.17
2019-03-28T04:57:20.054Z,8.58
2019-03-28T04:59:51.195Z,11.83
2019-03-28T05:02:23.117Z,15.13
2019-03-28T05:04:54.027Z,10.82
2019-03-28T05:07:25.113Z,12.28
2019-03-28T05:09:56.089Z,20.97
2019-03-28T05:12:28.128Z,9.53
2019-03-28T05:14:59.180Z,11.68
2019-03-28T05:17:30.175Z,6.70
2019-03-28T05:20:01.171Z,8.33
2019-03-28T05:22:32.207Z,8.33
2019-03-28T05:25:03.239Z,10.95
2019-03-28T05:27:34.102Z,14.13
2019-03-28T05:30:09.626Z,8.83
2019-03-28T05:32:40.577Z,11.63
2019-03-28T05:35:11.521Z,9.80
2019-03-28T05:37:42.455Z,9.75
2019-03-28T05:40:13.456Z,9.15
2019-03-28T05:42:44.304Z,15.25
2019-03-28T05:45:15.359Z,10.10
2019-03-28T05:47:46.323Z,15.30
2019-03-28T05:50:17.249Z,14.65
2019-03-28T05:52:48.190Z,14.13
2019-03-28T05:55:19.053Z,16.95
2019-03-28T05:57:49.904Z,14.75
2019-03-28T06:00:21.092Z,15.88
2019-03-28T06:02:52.164Z,13.60
2019-03-28T06:05:23.113Z,13.88
2019-03-28T06:07:53.991Z,10.35
2019-03-28T06:10:24.998Z,12.90
2019-03-28T06:12:55.933Z,15.83
2019-03-28T06:15:26.799Z,10.35
2019-03-28T06:17:57.717Z,9.65
2019-03-28T06:20:28.653Z,14.83
2019-03-28T06:22:59.627Z,11.48
2019-03-28T06:25:30.621Z,8.95
2019-03-28T06:28:02.032Z,8.35
2019-03-28T06:30:33.073Z,16.85
2019-03-28T06:33:04.153Z,14.28
2019-03-28T06:35:35.037Z,10.85
2019-03-28T06:38:06.016Z,15.35
2019-03-28T06:40:36.960Z,6.25
2019-03-28T06:43:08.232Z,6.83
2019-03-28T06:45:39.262Z,7.37
2019-03-28T06:48:10.108Z,7.87
2019-03-28T06:50:41.019Z,6.65
2019-03-28T06:53:12.575Z,5.55
2019-03-28T06:55:43.636Z,7.03
2019-03-28T06:58:14.570Z,14.53
2019-03-28T07:00:45.939Z,3.42
2019-03-28T07:03:16.935Z,3.98
2019-03-28T07:05:48.395Z,4.35
2019-03-28T07:08:19.448Z,3.20
2019-03-28T07:10:50.715Z,2.27
2019-03-28T07:13:21.800Z,3.50
2019-03-28T07:15:52.728Z,3.25
2019-03-28T07:18:23.846Z,3.90
2019-03-28T07:20:54.947Z,3.98
2019-03-28T07:23:25.896Z,3.25
2019-03-28T07:25:56.738Z,7.62
2019-03-28T07:28:27.788Z,25.80
2019-03-28T07:30:58.727Z,4.62
2019-03-28T07:33:29.720Z,5.92
2019-03-28T07:36:00.743Z,10.18
2019-03-28T07:38:31.811Z,4.83
2019-03-28T07:41:02.977Z,4.40
2019-03-28T07:43:33.873Z,6.80
2019-03-28T07:46:04.816Z,3.33
2019-03-28T07:48:35.983Z,4.72
2019-03-28T07:51:07.192Z,5.53
2019-03-28T07:53:38.242Z,5.30
2019-03-28T07:56:09.238Z,8.25
2019-03-28T07:58:40.235Z,23.05
2019-03-28T08:01:11.431Z,14.18
2019-03-28T08:03:42.473Z,9.58
2019-03-28T08:06:13.642Z,13.72
2019-03-28T08:08:44.582Z,15.93
2019-03-28T08:11:15.682Z,8.95
2019-03-28T08:13:46.567Z,32.03
2019-03-28T08:16:17.557Z,26.48
2019-03-28T08:18:48.725Z,8.63
2019-03-28T08:21:19.778Z,9.45
2019-03-28T08:23:50.888Z,9.35
2019-03-28T08:26:22.176Z,24.10
2019-03-28T08:28:53.231Z,32.60
2019-03-28T08:31:25.334Z,18.62
2019-03-28T08:33:56.723Z,21.15
2019-03-28T08:36:27.953Z,33.45
2019-03-28T08:38:59.203Z,15.88
2019-03-28T08:41:30.621Z,12.55
2019-03-28T08:44:02.521Z,10.30
2019-03-28T08:46:33.552Z,7.47
2019-03-28T08:49:04.407Z,5.62
2019-03-28T08:51:35.384Z,6.95
2019-03-28T08:54:06.362Z,7.15
2019-03-28T08:56:37.433Z,10.30
2019-03-28T08:59:08.372Z,8.88
2019-03-28T09:01:39.414Z,7.17
2019-03-28T09:04:11.099Z,8.20
2019-03-28T09:06:42.048Z,10.40
2019-03-28T09:09:14.005Z,14.50
2019-03-28T09:11:45.092Z,9.18
2019-03-28T09:14:16.142Z,8.10
2019-03-28T09:16:47.142Z,10.88
2019-03-28T09:19:18.198Z,12.30
2019-03-28T09:21:49.181Z,13.62
2019-03-28T09:24:20.203Z,12.37
2019-03-28T09:26:51.155Z,14.10
2019-03-28T09:29:22.666Z,24.25
2019-03-28T09:31:53.675Z,6.55
2019-03-28T09:34:24.912Z,10.55
2019-03-28T09:36:56.014Z,6.53
2019-03-28T09:39:27.469Z,10.43
2019-03-28T09:41:58.341Z,14.73
2019-03-28T09:44:29.320Z,10.43
2019-03-28T09:47:00.348Z,9.38
2019-03-28T09:49:31.355Z,8.68
2019-03-28T09:52:02.531Z,8.05
2019-03-28T09:54:33.608Z,8.20
2019-03-28T09:57:04.677Z,6.55
2019-03-28T09:59:35.835Z,10.13
2019-03-28T10:02:06.906Z,6.78
2019-03-28T10:04:38.076Z,10.28
2019-03-28T10:07:08.975Z,10.03
2019-03-28T10:09:40.078Z,11.25
2019-03-28T10:12:11.076Z,6.97
2019-03-28T10:14:41.994Z,7.70
2019-03-28T10:17:14.077Z,7.42
2019-03-28T10:19:46.129Z,9.43
2019-03-28T10:22:18.780Z,11.00
2019-03-28T10:24:49.717Z,9.65
2019-03-28T10:27:20.722Z,7.37
2019-03-28T10:29:51.633Z,10.03
2019-03-28T10:32:22.734Z,8.55
2019-03-28T10:34:54.138Z,9.00
2019-03-28T10:37:25.116Z,12.80
2019-03-28T10:39:55.984Z,13.55
2019-03-28T10:42:27.459Z,9.43
2019-03-28T10:44:58.467Z,10.43
2019-03-28T10:47:29.391Z,6.25
2019-03-28T10:50:03.622Z,8.33
2019-03-28T10:52:33.132Z,8.48
2019-03-28T10:55:04.575Z,5.87
2019-03-28T10:57:35.497Z,6.35
2019-03-28T11:00:23.028Z,8.90
2019-03-28T11:02:42.145Z,11.08
2019-03-28T11:05:13.117Z,7.22
2019-03-28T11:07:44.100Z,7.70
2019-03-28T11:10:15.170Z,12.65
2019-03-28T11:12:46.275Z,13.70
2019-03-28T11:15:17.201Z,14.98
2019-03-28T11:17:49.168Z,18.25
2019-03-28T11:20:20.084Z,9.15
2019-03-28T11:22:51.231Z,9.43
2019-03-28T11:25:22.163Z,9.08
2019-03-28T11:27:53.114Z,9.90
2019-03-28T11:30:24.194Z,8.80
2019-03-28T11:32:55.484Z,5.50
2019-03-28T11:35:26.517Z,9.83
2019-03-28T11:37:57.523Z,6.55
2019-03-28T11:40:28.513Z,6.05
2019-03-28T11:42:59.428Z,6.85
2019-03-28T11:45:30.281Z,3.87
2019-03-28T11:48:01.322Z,5.65
2019-03-28T11:50:32.307Z,5.40
2019-03-28T11:53:03.396Z,5.35
2019-03-28T11:55:34.552Z,5.78
2019-03-28T11:58:05.730Z,4.62
2019-03-28T12:00:36.725Z,6.08
2019-03-28T12:03:07.700Z,5.90
2019-03-28T12:05:38.563Z,5.10
2019-03-28T12:08:09.621Z,4.42
2019-03-28T12:10:40.625Z,4.85
2019-03-28T12:13:11.612Z,4.60
2019-03-28T12:15:42.594Z,5.80
2019-03-28T12:18:13.748Z,4.22
2019-03-28T12:20:45.715Z,5.97
2019-03-28T12:23:16.955Z,8.58
2019-03-28T12:25:48.118Z,4.08
2019-03-28T12:28:19.434Z,4.75
2019-03-28T12:30:50.313Z,5.22
2019-03-28T12:33:21.355Z,4.55
2019-03-28T12:35:52.669Z,4.05
2019-03-28T12:38:23.879Z,7.33
2019-03-28T12:40:54.876Z,5.42
2019-03-28T12:43:26.006Z,5.25
2019-03-28T12:45:57.304Z,3.10
2019-03-28T12:48:28.436Z,3.35
2019-03-28T12:51:00.887Z,2.90
2019-03-28T12:53:32.155Z,3.60
2019-03-28T12:56:03.257Z,4.35
2019-03-28T12:58:34.393Z,5.25
2019-03-28T13:01:05.683Z,7.70
2019-03-28T13:03:45.307Z,9.93
2019-03-28T13:06:09.396Z,8.88
2019-03-28T13:08:40.307Z,8.75
2019-03-28T13:11:11.530Z,7.85
2019-03-28T13:13:42.603Z,8.93
2019-03-28T13:16:13.675Z,7.30
2019-03-28T13:18:44.591Z,6.90
2019-03-28T13:21:15.579Z,5.80
2019-03-28T13:23:46.564Z,4.78
2019-03-28T13:26:17.629Z,4.87
2019-03-28T13:28:48.557Z,7.37
2019-03-28T13:31:19.479Z,4.90
2019-03-28T13:33:50.790Z,4.80
2019-03-28T13:36:21.786Z,6.60
2019-03-28T13:38:53.246Z,3.45
2019-03-28T13:41:24.008Z,8.70
2019-03-28T13:43:54.916Z,11.73
2019-03-28T13:46:25.892Z,3.45
2019-03-28T13:48:56.896Z,5.33
2019-03-28T13:51:28.111Z,4.87
2019-03-28T13:53:59.147Z,6.50
2019-03-28T13:56:30.192Z,5.03
2019-03-28T13:59:01.396Z,7.22
2019-03-28T14:01:32.458Z,8.95
2019-03-28T14:04:03.392Z,10.18
2019-03-28T14:06:34.582Z,6.10
2019-03-28T14:09:06.838Z,11.35
2019-03-28T14:11:39.223Z,7.80
2019-03-28T14:14:10.287Z,6.97
2019-03-28T14:16:41.355Z,7.12
2019-03-28T14:19:12.328Z,6.35
2019-03-28T14:21:43.623Z,5.40
2019-03-28T14:24:14.595Z,5.53
2019-03-28T14:26:45.836Z,8.83
2019-03-28T14:29:16.892Z,7.50
2019-03-28T14:31:47.893Z,6.42
2019-03-28T14:34:18.776Z,5.83
2019-03-28T14:36:56.483Z,6.15
2019-03-28T14:39:27.542Z,5.90
2019-03-28T14:41:58.793Z,6.97
2019-03-28T14:44:29.799Z,3.27
2019-03-28T14:47:00.993Z,3.20
2019-03-28T14:49:32.045Z,3.60
2019-03-28T14:52:03.036Z,4.60
2019-03-28T14:54:35.477Z,3.42
2019-03-28T14:57:06.499Z,3.15
2019-03-28T14:59:37.544Z,6.83
2019-03-28T15:02:08.669Z,5.67
2019-03-28T15:04:39.715Z,12.18
2019-03-28T15:07:10.700Z,4.90
2019-03-28T15:09:41.705Z,2.62
2019-03-28T15:12:12.794Z,5.72
2019-03-28T15:14:43.806Z,5.87
2019-03-28T15:17:14.819Z,5.15
2019-03-28T15:19:45.797Z,11.38
2019-03-28T15:22:16.842Z,13.08
2019-03-28T15:24:47.960Z,12.70
2019-03-28T15:27:19.144Z,5.87
2019-03-28T15:29:51.263Z,6.70
2019-03-28T15:32:22.370Z,3.58
2019-03-28T15:34:53.586Z,4.40
2019-03-28T15:37:24.691Z,5.85
2019-03-28T15:39:55.720Z,4.78
2019-03-28T15:42:28.106Z,7.80
2019-03-28T15:44:59.292Z,6.75
2019-03-28T15:47:32.985Z,7.15
2019-03-28T15:52:35.479Z,5.83
2019-03-28T15:55:07.537Z,6.10
2019-03-28T15:57:40.807Z,5.78
2019-03-28T16:00:12.017Z,4.03
2019-03-28T16:02:43.056Z,8.40
2019-03-28T16:05:14.239Z,7.15
2019-03-28T16:07:45.266Z,10.75
2019-03-28T16:10:16.573Z,11.70
2019-03-28T16:12:47.671Z,10.98
2019-03-28T16:15:18.835Z,6.53
2019-03-28T16:17:49.749Z,5.50
2019-03-28T16:20:20.777Z,6.55
2019-03-28T16:22:51.818Z,17.40
2019-03-28T16:25:22.766Z,11.88
2019-03-28T16:27:53.814Z,8.15
2019-03-28T16:30:35.717Z,4.60
2019-03-28T16:33:06.697Z,4.67
2019-03-28T16:35:37.813Z,9.18
2019-03-28T16:38:12.504Z,7.17
2019-03-28T16:40:43.520Z,11.10
2019-03-28T16:43:14.696Z,12.07
2019-03-28T16:45:46.152Z,6.85
2019-03-28T16:48:17.292Z,8.18
2019-03-28T16:50:48.341Z,23.95
2019-03-28T16:53:19.688Z,35.03
2019-03-28T16:55:51.133Z,35.28
2019-03-28T16:58:22.095Z,36.17
2019-03-28T17:00:53.127Z,41.92
2019-03-28T17:03:24.634Z,42.55
2019-03-28T17:05:56.320Z,43.85
2019-03-28T17:08:27.819Z,40.33
2019-03-28T17:10:58.916Z,33.60
2019-03-28T17:13:29.964Z,27.35
2019-03-28T17:16:01.009Z,29.72
2019-03-28T17:18:32.107Z,36.53
2019-03-28T17:21:03.353Z,36.40
2019-03-28T17:23:34.444Z,32.00
2019-03-28T17:26:06.006Z,26.23
2019-03-28T17:28:37.550Z,27.50
2019-03-28T17:31:08.748Z,27.87
2019-03-28T17:33:39.733Z,23.07
2019-03-28T17:36:11.048Z,21.75
2019-03-28T17:38:43.671Z,27.80
2019-03-28T17:41:15.354Z,17.23
2019-03-28T17:43:46.529Z,17.65
2019-03-28T17:46:19.008Z,16.00
2019-03-28T17:48:50.247Z,16.27
2019-03-28T17:51:21.365Z,15.75
2019-03-28T17:53:55.968Z,18.12
2019-03-28T17:56:27.267Z,17.40
2019-03-28T17:58:59.162Z,20.40
2019-03-28T18:01:30.783Z,22.20
2019-03-28T18:04:03.013Z,26.37
2019-03-28T18:06:34.915Z,26.15
2019-03-28T18:09:07.639Z,24.82
2019-03-28T18:11:38.912Z,27.13
2019-03-28T18:14:11.112Z,36.35
2019-03-28T18:16:42.236Z,40.85
2019-03-28T18:19:13.215Z,59.55
2019-03-28T18:21:44.252Z,46.30
2019-03-28T18:24:16.317Z,41.40
2019-03-28T18:26:47.582Z,43.92
2019-03-28T18:29:19.759Z,41.88
2019-03-28T18:31:52.673Z,46.63
2019-03-28T18:34:23.896Z,54.58
2019-03-28T18:36:55.810Z,50.52
2019-03-28T18:39:27.304Z,45.03
2019-03-28T18:41:58.724Z,51.53
2019-03-28T18:44:30.178Z,51.10
2019-03-28T18:47:01.750Z,46.95
2019-03-28T18:49:33.078Z,47.27
2019-03-28T18:52:07.232Z,53.20
2019-03-28T18:54:37.035Z,51.90
2019-03-28T18:57:14.542Z,58.65
2019-03-28T18:59:45.889Z,56.53
2019-03-28T19:02:17.000Z,58.73
2019-03-28T19:04:48.128Z,62.60
2019-03-28T19:07:19.467Z,62.78
2019-03-28T19:09:50.674Z,56.35
2019-03-28T19:12:21.930Z,54.03
2019-03-28T19:14:54.894Z,61.98
2019-03-28T19:17:26.052Z,51.25
2019-03-28T19:19:59.678Z,27.40
2019-03-28T19:22:43.941Z,38.75
2019-03-28T19:25:15.443Z,41.08
2019-03-28T19:27:46.578Z,36.15
2019-03-28T19:30:21.101Z,40.58
2019-03-28T19:32:52.221Z,44.38
2019-03-28T19:35:32.917Z,40.15
2019-03-28T19:37:57.552Z,48.95
2019-03-28T19:40:28.796Z,46.45
2019-03-28T19:42:59.892Z,44.53
2019-03-28T19:45:35.858Z,42.33
2019-03-28T19:48:06.218Z,42.40
2019-03-28T19:50:37.372Z,37.28
2019-03-28T19:53:11.550Z,34.20
2019-03-28T19:55:41.261Z,46.50
2019-03-28T19:58:13.726Z,43.05
2019-03-28T20:00:45.082Z,36.87
2019-03-28T20:03:16.292Z,35.58
2019-03-28T20:05:49.323Z,37.85
2019-03-28T20:08:20.340Z,35.90
2019-03-28T20:10:51.503Z,38.45
2019-03-28T20:13:23.871Z,34.00
2019-03-28T20:15:55.426Z,43.73
2019-03-28T20:18:26.544Z,45.52
2019-03-28T20:20:57.793Z,48.13
2019-03-28T20:23:29.151Z,48.95
2019-03-28T20:26:00.545Z,54.18
2019-03-28T20:28:31.962Z,56.05
2019-03-28T20:31:03.143Z,50.92
2019-03-28T20:33:34.318Z,59.90
2019-03-28T20:36:29.974Z,58.55
2019-03-28T20:38:38.449Z,46.33
2019-03-28T20:41:09.531Z,49.10
2019-03-28T20:43:41.347Z,55.88
2019-03-28T20:46:12.744Z,105.52
2019-03-28T20:48:45.148Z,187.22
2019-03-28T20:51:16.370Z,166.88
2019-03-28T20:53:47.372Z,134.20
2019-03-28T20:56:18.616Z,114.55
2019-03-28T20:58:49.692Z,103.55
2019-03-28T21:01:20.811Z,95.90
2019-03-28T21:03:53.029Z,95.67
2019-03-28T21:06:25.162Z,73.52
2019-03-28T21:08:56.183Z,63.35
2019-03-28T21:11:29.495Z,47.90
2019-03-28T21:14:00.063Z,52.65
2019-03-28T21:16:33.754Z,47.23
2019-03-28T21:19:04.326Z,37.50
2019-03-28T21:21:35.517Z,36.98
2019-03-28T21:24:07.112Z,39.27
2019-03-28T21:26:38.278Z,32.05
2019-03-28T21:29:09.421Z,29.98
2019-03-28T21:31:49.792Z,42.08
2019-03-28T21:34:13.553Z,34.20
2019-03-28T21:36:44.567Z,30.92
2019-03-28T21:39:15.693Z,31.93
2019-03-28T21:41:47.097Z,42.93
2019-03-28T21:44:18.224Z,58.15
2019-03-28T21:46:49.216Z,43.63
2019-03-28T21:49:20.359Z,45.30
2019-03-28T21:51:51.590Z,39.98
2019-03-28T21:54:24.829Z,35.38
2019-03-28T21:56:56.166Z,38.58
2019-03-28T21:59:27.298Z,32.63
2019-03-28T22:01:58.981Z,36.80
2019-03-28T22:04:30.117Z,35.58
2019-03-28T22:07:01.280Z,39.63
2019-03-28T22:09:32.369Z,31.05
2019-03-28T22:12:03.794Z,40.70
2019-03-28T22:14:34.869Z,39.67
2019-03-28T22:17:06.004Z,30.68
2019-03-28T22:19:37.094Z,27.98
2019-03-28T22:22:08.223Z,30.48
2019-03-28T22:24:39.406Z,28.57
2019-03-28T22:27:11.601Z,32.83
2019-03-28T22:29:43.029Z,36.35
2019-03-28T22:32:15.126Z,46.35
2019-03-28T22:34:46.141Z,46.45
2019-03-28T22:37:18.193Z,54.95
2019-03-28T22:39:49.371Z,58.02
2019-03-28T22:42:20.429Z,45.40
2019-03-28T22:44:51.623Z,47.20
2019-03-28T22:47:22.802Z,41.80
2019-03-28T22:49:54.977Z,42.70
2019-03-28T22:52:26.078Z,40.70
2019-03-28T22:54:57.171Z,40.12
2019-03-28T22:57:28.291Z,46.50
2019-03-28T22:59:59.263Z,45.63
2019-03-28T23:02:30.473Z,50.38
2019-03-28T23:05:01.611Z,46.80
2019-03-28T23:07:32.808Z,50.50
2019-03-28T23:10:06.565Z,48.35
2019-03-28T23:12:37.699Z,63.50
2019-03-28T23:15:10.865Z,60.15
2019-03-28T23:17:42.197Z,55.85
2019-03-28T23:20:13.423Z,60.73
2019-03-28T23:22:44.547Z,58.60
2019-03-28T23:25:15.613Z,61.00
2019-03-28T23:27:46.789Z,63.30
2019-03-28T23:30:17.873Z,61.08
2019-03-28T23:32:49.018Z,53.33
2019-03-28T23:35:20.169Z,49.75
2019-03-28T23:37:51.312Z,39.98
2019-03-28T23:40:22.519Z,37.90
2019-03-28T23:42:53.754Z,35.23
2019-03-28T23:45:25.020Z,30.10
2019-03-28T23:47:56.296Z,39.27
2019-03-28T23:50:27.416Z,31.50
2019-03-28T23:52:58.559Z,30.10
2019-03-28T23:55:29.539Z,34.03
2019-03-28T23:58:00.766Z,23.00
